Time;durP1;ratioP1;P1;durP2;ratioP2;P2;SDS_P1;SDS_P2;PMS_P1;PMS_P2;Temp;Humidity;BMP_temperature;BMP_pressure;BME280_temperature;BME280_humidity;BME280_pressure;Samples;Min_cycle;Max_cycle;Signal;HPM_P1;HPM_P2
2023/04/15 00:00:06;;;;;;;15.77;6.15;;;5.50;99.90;;;;;;5117620;27;20053;-87
2023/04/15 00:02:31;;;;;;;14.93;6.50;;;5.50;99.90;;;;;;5110701;27;20084;-88
2023/04/15 00:04:57;;;;;;;15.02;6.28;;;5.40;99.90;;;;;;5110480;27;20046;-87
2023/04/15 00:07:23;;;;;;;15.68;6.45;;;5.50;99.90;;;;;;5111420;27;20039;-88
2023/04/15 00:09:48;;;;;;;15.20;7.18;;;5.50;99.90;;;;;;5109890;27;20516;-88
2023/04/15 00:12:14;;;;;;;14.63;7.53;;;5.60;99.90;;;;;;5104878;27;20070;-86
2023/04/15 00:14:40;;;;;;;15.07;7.50;;;5.90;99.90;;;;;;5116646;27;20046;-87
2023/04/15 00:17:06;;;;;;;14.02;6.88;;;5.70;99.90;;;;;;5098899;27;20047;-86
2023/04/15 00:19:32;;;;;;;16.83;8.50;;;5.80;99.90;;;;;;5108636;27;20046;-87
2023/04/15 00:21:58;;;;;;;15.10;7.68;;;5.80;99.90;;;;;;5102536;27;20057;-87
2023/04/15 00:24:24;;;;;;;15.00;7.50;;;6.50;99.90;;;;;;5117163;27;20043;-88
2023/04/15 00:26:49;;;;;;;15.63;8.25;;;5.90;99.90;;;;;;5117171;27;20665;-86
2023/04/15 00:29:15;;;;;;;16.58;7.97;;;6.00;99.90;;;;;;5116485;27;20054;-87
2023/04/15 00:31:41;;;;;;;11.82;7.00;;;5.90;99.90;;;;;;5103078;27;20474;-88
2023/04/15 00:34:07;;;;;;;15.55;8.80;;;5.90;99.90;;;;;;5105759;27;20094;-88
2023/04/15 00:36:33;;;;;;;18.13;8.20;;;6.00;99.90;;;;;;5110039;27;20422;-87
2023/04/15 00:39:00;;;;;;;14.65;8.23;;;5.90;99.90;;;;;;5108808;27;20043;-86
2023/04/15 00:41:25;;;;;;;16.92;7.80;;;6.10;99.90;;;;;;5096901;27;20088;-87
2023/04/15 00:43:51;;;;;;;14.38;7.78;;;5.80;99.90;;;;;;5108474;27;20089;-87
2023/04/15 00:46:19;;;;;;;13.57;8.18;;;6.40;99.90;;;;;;5116343;27;20042;-87
2023/04/15 00:48:46;;;;;;;14.77;9.32;;;5.80;99.90;;;;;;5104702;27;20034;-87
2023/04/15 00:51:12;;;;;;;14.70;8.60;;;5.90;99.90;;;;;;5095618;27;20043;-87
2023/04/15 00:53:38;;;;;;;18.85;9.60;;;5.70;99.90;;;;;;5109282;27;20050;-87
2023/04/15 00:56:05;;;;;;;15.90;9.43;;;5.90;99.90;;;;;;5115722;27;20034;-87
2023/04/15 00:58:31;;;;;;;14.45;9.07;;;5.70;99.90;;;;;;5104134;27;20039;-87
2023/04/15 01:00:58;;;;;;;16.35;8.98;;;6.00;99.90;;;;;;5109961;27;20061;-87
2023/04/15 01:03:24;;;;;;;14.75;8.73;;;5.60;99.90;;;;;;5095590;27;20039;-87
2023/04/15 01:05:57;;;;;;;15.20;9.00;;;5.50;99.90;;;;;;5115413;27;20038;-87
2023/04/15 01:08:27;;;;;;;14.57;8.55;;;5.90;99.90;;;;;;5116478;27;20127;-88
2023/04/15 01:10:55;;;;;;;13.85;9.20;;;5.60;99.90;;;;;;5103380;27;20489;-87
2023/04/15 01:13:23;;;;;;;14.98;9.88;;;5.40;99.90;;;;;;5100491;27;20043;-87
2023/04/15 01:15:49;;;;;;;14.68;9.07;;;5.30;99.90;;;;;;5103969;27;20406;-87
2023/04/15 01:18:15;;;;;;;15.45;9.38;;;5.30;99.90;;;;;;5113954;27;20054;-87
2023/04/15 01:20:41;;;;;;;15.95;8.85;;;5.30;99.90;;;;;;5102979;27;20047;-90
2023/04/15 01:23:07;;;;;;;21.25;9.80;;;5.20;99.90;;;;;;5101926;27;20046;-87
2023/04/15 01:25:33;;;;;;;16.35;9.00;;;5.10;99.90;;;;;;5107285;27;20039;-86
2023/04/15 01:28:00;;;;;;;14.38;9.07;;;5.40;99.90;;;;;;5095278;27;20104;-87
2023/04/15 01:30:26;;;;;;;14.82;9.65;;;5.00;99.90;;;;;;5094089;27;20040;-86
2023/04/15 01:32:53;;;;;;;16.63;9.77;;;5.00;99.90;;;;;;5096165;27;20058;-87
2023/04/15 01:35:20;;;;;;;15.30;9.45;;;5.00;99.90;;;;;;5120775;27;20039;-86
2023/04/15 01:37:46;;;;;;;14.52;9.85;;;5.20;99.90;;;;;;5099636;27;20134;-87
2023/04/15 01:40:12;;;;;;;16.02;9.75;;;5.00;99.90;;;;;;5095098;27;20168;-87
2023/04/15 01:42:38;;;;;;;15.65;9.20;;;5.30;99.90;;;;;;5095025;27;20054;-86
2023/04/15 01:45:06;;;;;;;17.05;10.10;;;4.90;99.90;;;;;;5102942;27;20042;-87
2023/04/15 01:47:32;;;;;;;15.35;9.30;;;4.90;99.90;;;;;;5113189;27;20077;-86
2023/04/15 01:49:58;;;;;;;14.45;8.88;;;5.40;99.90;;;;;;5104199;27;20053;-87
2023/04/15 01:52:24;;;;;;;14.98;9.63;;;4.80;99.90;;;;;;5111413;27;20047;-87
2023/04/15 01:54:50;;;;;;;13.40;9.13;;;4.80;99.90;;;;;;5095679;27;20067;-86
2023/04/15 01:57:16;;;;;;;14.52;9.77;;;5.10;99.90;;;;;;5094138;27;20122;-86
2023/04/15 01:59:43;;;;;;;16.92;10.27;;;4.80;99.90;;;;;;5103653;27;20458;-87
2023/04/15 02:02:09;;;;;;;16.35;9.73;;;5.00;99.90;;;;;;5112942;27;20113;-87
2023/04/15 02:04:35;;;;;;;20.33;11.25;;;4.70;99.90;;;;;;5094457;27;20134;-87
2023/04/15 02:07:00;;;;;;;17.15;10.50;;;4.70;99.90;;;;;;5110119;27;20053;-87
2023/04/15 02:09:26;;;;;;;16.88;10.40;;;4.90;99.90;;;;;;5104517;27;20046;-87
2023/04/15 02:11:53;;;;;;;16.95;10.40;;;4.60;99.90;;;;;;5096275;27;20039;-86
2023/04/15 02:14:18;;;;;;;15.90;11.07;;;4.70;99.90;;;;;;5093083;27;20407;-87
2023/04/15 02:16:44;;;;;;;18.45;10.77;;;4.60;99.90;;;;;;5094327;27;20047;-86
2023/04/15 02:19:10;;;;;;;18.38;10.82;;;4.90;99.90;;;;;;5120885;27;20043;-85
2023/04/15 02:21:35;;;;;;;16.80;11.20;;;4.50;99.90;;;;;;5098862;27;20119;-86
2023/04/15 02:24:01;;;;;;;18.83;12.40;;;4.40;99.90;;;;;;5105843;27;20471;-86
2023/04/15 02:26:30;;;;;;;17.08;11.60;;;5.20;99.90;;;;;;5107683;27;20101;-86
2023/04/15 02:28:56;;;;;;;19.25;11.90;;;4.40;99.90;;;;;;5094684;27;20130;-86
2023/04/15 02:31:22;;;;;;;20.13;12.85;;;4.40;99.90;;;;;;5095897;27;20043;-87
2023/04/15 02:33:47;;;;;;;25.30;13.80;;;4.50;99.90;;;;;;5113969;27;20043;-86
2023/04/15 02:36:13;;;;;;;20.30;12.52;;;4.60;99.90;;;;;;5097590;27;20079;-86
2023/04/15 02:38:41;;;;;;;18.23;12.18;;;4.30;99.90;;;;;;5094138;27;20340;-86
2023/04/15 02:41:07;;;;;;;18.40;12.38;;;4.30;99.90;;;;;;5109973;27;20043;-87
2023/04/15 02:43:33;;;;;;;17.17;13.05;;;5.10;99.90;;;;;;5113800;27;20066;-86
2023/04/15 02:45:58;;;;;;;19.90;13.10;;;4.30;99.90;;;;;;5111497;27;20177;-86
2023/04/15 02:48:24;;;;;;;19.95;11.82;;;4.90;99.90;;;;;;5103016;27;20039;-87
2023/04/15 02:50:50;;;;;;;20.85;13.77;;;4.60;99.90;;;;;;5110737;27;20039;-86
2023/04/15 02:53:16;;;;;;;17.80;13.23;;;4.30;99.90;;;;;;5110935;27;20047;-86
2023/04/15 02:55:42;;;;;;;23.80;14.43;;;4.70;99.90;;;;;;5096391;27;20122;-86
2023/04/15 02:58:07;;;;;;;22.02;14.45;;;4.90;99.90;;;;;;5104879;28;20429;-86
2023/04/15 03:00:33;;;;;;;19.30;13.63;;;4.80;99.90;;;;;;5096554;27;20558;-87
2023/04/15 03:03:04;;;;;;;23.33;15.05;;;4.30;99.90;;;;;;5104508;28;20073;-86
2023/04/15 03:05:30;;;;;;;24.52;15.80;;;4.20;99.90;;;;;;5123531;27;20082;-86
2023/04/15 03:07:56;;;;;;;22.83;14.85;;;4.20;99.90;;;;;;5093726;28;20157;-86
2023/04/15 03:10:21;;;;;;;20.50;14.68;;;4.40;99.90;;;;;;5098512;27;20049;-86
2023/04/15 03:12:47;;;;;;;27.77;15.65;;;4.50;99.90;;;;;;5122606;27;20039;-86
2023/04/15 03:15:15;;;;;;;23.42;15.80;;;4.40;99.90;;;;;;5110923;27;20510;-85
2023/04/15 03:17:41;;;;;;;26.98;16.98;;;4.70;99.90;;;;;;5096988;27;20385;-86
2023/04/15 03:20:07;;;;;;;24.75;15.77;;;4.30;99.90;;;;;;5114567;27;20089;-86
2023/04/15 03:22:33;;;;;;;19.90;15.25;;;4.20;99.90;;;;;;5106893;27;20031;-86
2023/04/15 03:24:59;;;;;;;23.27;15.68;;;4.10;99.90;;;;;;5097535;27;20107;-86
2023/04/15 03:27:25;;;;;;;26.40;17.30;;;4.80;99.90;;;;;;5113586;27;20811;-85
2023/04/15 03:29:51;;;;;;;24.30;16.40;;;4.20;99.90;;;;;;5110605;27;20088;-86
2023/04/15 03:32:17;;;;;;;28.02;18.65;;;4.10;99.90;;;;;;5106978;27;20087;-86
2023/04/15 03:34:42;;;;;;;25.50;17.00;;;4.10;99.90;;;;;;5104726;27;20035;-85
2023/04/15 03:37:08;;;;;;;27.50;17.95;;;4.70;99.90;;;;;;5117010;27;20588;-86
2023/04/15 03:39:34;;;;;;;24.63;18.10;;;4.20;99.90;;;;;;5103289;27;20121;-86
2023/04/15 03:42:00;;;;;;;26.55;19.45;;;4.30;99.90;;;;;;5107294;27;20054;-86
2023/04/15 03:44:27;;;;;;;29.38;18.60;;;5.10;99.90;;;;;;5116311;27;20138;-86
2023/04/15 03:46:53;;;;;;;25.13;18.10;;;4.20;99.90;;;;;;5117627;27;20133;-85
2023/04/15 03:49:19;;;;;;;30.55;19.45;;;4.20;99.90;;;;;;5117430;27;20451;-86
2023/04/15 03:51:45;;;;;;;26.10;19.15;;;4.20;99.90;;;;;;5116531;27;20462;-85
2023/04/15 03:54:14;;;;;;;27.30;18.23;;;4.20;99.90;;;;;;5117526;27;20114;-86
2023/04/15 03:56:39;;;;;;;29.08;19.25;;;4.50;99.90;;;;;;5117509;27;20787;-85
2023/04/15 03:59:05;;;;;;;26.75;18.45;;;4.60;99.90;;;;;;5103528;27;20146;-85
2023/04/15 04:01:31;;;;;;;29.45;19.33;;;4.50;99.90;;;;;;5106835;27;20050;-87
2023/04/15 04:03:56;;;;;;;26.50;19.27;;;4.80;99.90;;;;;;5132194;27;20501;-86
2023/04/15 04:06:22;;;;;;;28.65;19.70;;;4.30;99.90;;;;;;5105631;27;20379;-86
2023/04/15 04:08:48;;;;;;;29.33;19.83;;;4.40;99.90;;;;;;5114464;27;20454;-86
2023/04/15 04:11:13;;;;;;;28.52;20.27;;;4.10;99.90;;;;;;5123522;27;20043;-86
2023/04/15 04:13:39;;;;;;;29.05;19.75;;;4.30;99.90;;;;;;5100727;27;20034;-86
2023/04/15 04:16:05;;;;;;;33.15;20.73;;;4.30;99.90;;;;;;5107001;27;20043;-86
2023/04/15 04:18:32;;;;;;;28.80;20.92;;;4.20;99.90;;;;;;5110641;27;20047;-86
2023/04/15 04:20:58;;;;;;;28.20;20.60;;;4.00;99.90;;;;;;5105653;27;20035;-86
2023/04/15 04:23:24;;;;;;;31.45;22.00;;;4.60;99.90;;;;;;5099742;27;20096;-86
2023/04/15 04:25:50;;;;;;;31.58;20.65;;;4.00;99.90;;;;;;5096872;27;20467;-85
2023/04/15 04:28:15;;;;;;;30.13;21.02;;;4.00;99.90;;;;;;5130250;27;20171;-87
2023/04/15 04:30:41;;;;;;;30.20;19.65;;;4.10;99.90;;;;;;5124055;27;20123;-86
2023/04/15 04:33:07;;;;;;;26.70;19.30;;;4.10;99.90;;;;;;5112832;27;20482;-85
2023/04/15 04:35:33;;;;;;;25.35;18.52;;;4.20;99.90;;;;;;5106359;27;20042;-85
2023/04/15 04:38:00;;;;;;;27.65;18.73;;;4.70;99.90;;;;;;5099485;27;20042;-85
2023/04/15 04:40:26;;;;;;;27.92;19.70;;;3.80;99.90;;;;;;5095441;27;20397;-84
2023/04/15 04:42:53;;;;;;;26.50;17.92;;;4.10;99.90;;;;;;5112884;27;20038;-85
2023/04/15 04:45:19;;;;;;;25.42;17.52;;;3.70;99.90;;;;;;5116451;27;20046;-84
2023/04/15 04:47:45;;;;;;;27.02;18.90;;;3.70;99.90;;;;;;5101984;27;20049;-85
2023/04/15 04:50:11;;;;;;;27.13;17.95;;;3.70;99.90;;;;;;5105791;27;20039;-85
2023/04/15 04:52:37;;;;;;;26.88;18.65;;;3.70;99.90;;;;;;5112235;27;20401;-85
2023/04/15 04:55:04;;;;;;;27.30;18.80;;;3.70;99.90;;;;;;5105047;27;20050;-86
2023/04/15 04:57:30;;;;;;;29.88;18.98;;;3.60;99.90;;;;;;5129958;27;20120;-84
2023/04/15 04:59:56;;;;;;;45.15;16.50;;;3.70;99.90;;;;;;5106380;27;20035;-85
2023/04/15 05:02:22;;;;;;;25.20;16.25;;;4.30;99.90;;;;;;5094246;27;20047;-86
2023/04/15 05:04:49;;;;;;;26.63;17.95;;;3.60;99.90;;;;;;5096276;27;20411;-85
2023/04/15 05:07:14;;;;;;;26.52;17.75;;;4.50;99.90;;;;;;5094064;27;20031;-85
2023/04/15 05:09:40;;;;;;;22.98;17.15;;;4.80;99.90;;;;;;5106058;27;20130;-85
2023/04/15 05:12:07;;;;;;;23.63;16.98;;;3.80;99.90;;;;;;5098924;27;20039;-85
2023/04/15 05:14:33;;;;;;;25.88;17.48;;;3.90;99.90;;;;;;5094654;27;20039;-85
2023/04/15 05:16:59;;;;;;;23.77;16.30;;;3.90;99.90;;;;;;5125626;27;20046;-85
2023/04/15 05:19:25;;;;;;;27.13;18.23;;;3.90;99.90;;;;;;5106689;27;20045;-85
2023/04/15 05:21:51;;;;;;;26.98;16.45;;;4.60;99.90;;;;;;5097234;27;20035;-85
2023/04/15 05:24:17;;;;;;;29.02;18.65;;;4.30;99.90;;;;;;5106452;27;20050;-86
2023/04/15 05:26:42;;;;;;;27.27;18.02;;;4.20;99.90;;;;;;5101659;27;20068;-85
2023/04/15 05:29:08;;;;;;;32.20;19.83;;;4.30;99.90;;;;;;5115695;27;20469;-86
2023/04/15 05:31:34;;;;;;;29.00;18.13;;;4.90;99.90;;;;;;5095231;27;20051;-86
2023/04/15 05:34:00;;;;;;;27.63;18.50;;;4.60;99.90;;;;;;5095557;27;20047;-86
2023/04/15 05:36:26;;;;;;;29.27;18.85;;;4.90;99.90;;;;;;5114486;27;20129;-85
2023/04/15 05:38:52;;;;;;;29.73;19.40;;;4.70;99.90;;;;;;5104524;27;20035;-85
2023/04/15 05:41:18;;;;;;;29.55;18.17;;;4.80;99.90;;;;;;5111054;27;20524;-85
2023/04/15 05:43:43;;;;;;;28.17;18.92;;;5.60;99.90;;;;;;5105606;27;20039;-85
2023/04/15 05:46:09;;;;;;;28.88;18.48;;;5.00;99.90;;;;;;5096733;27;20141;-85
2023/04/15 05:48:35;;;;;;;27.73;18.20;;;5.00;99.90;;;;;;5094841;27;20054;-85
2023/04/15 05:51:00;;;;;;;28.83;18.67;;;5.20;99.90;;;;;;5123967;27;20106;-86
2023/04/15 05:53:26;;;;;;;29.88;17.52;;;5.30;99.90;;;;;;5095996;27;20043;-86
2023/04/15 05:55:52;;;;;;;28.77;17.95;;;5.40;99.90;;;;;;5107850;27;20110;-86
2023/04/15 05:58:17;;;;;;;28.40;18.70;;;5.60;99.90;;;;;;5106270;27;20053;-87
2023/04/15 06:00:44;;;;;;;32.15;17.63;;;6.00;99.90;;;;;;5104919;27;20094;-86
2023/04/15 06:03:10;;;;;;;26.70;17.58;;;6.10;99.90;;;;;;5125427;27;20046;-86
2023/04/15 06:05:36;;;;;;;26.92;17.42;;;5.70;99.90;;;;;;5121277;27;20522;-85
2023/04/15 06:08:02;;;;;;;31.30;16.40;;;6.20;99.90;;;;;;5111678;27;20026;-86
2023/04/15 06:10:27;;;;;;;22.02;15.75;;;6.20;99.90;;;;;;5115692;27;20037;-86
2023/04/15 06:12:53;;;;;;;23.80;15.57;;;5.90;99.90;;;;;;5103414;27;20043;-87
2023/04/15 06:15:19;;;;;;;27.15;16.17;;;6.70;99.90;;;;;;5108201;27;20030;-86
2023/04/15 06:17:45;;;;;;;26.95;15.20;;;5.90;99.90;;;;;;5104194;27;20074;-86
2023/04/15 06:20:11;;;;;;;23.45;15.57;;;5.90;99.90;;;;;;5102372;27;20034;-86
2023/04/15 06:22:38;;;;;;;23.42;14.55;;;6.00;99.90;;;;;;5105739;27;20027;-86
2023/04/15 06:25:04;;;;;;;24.67;15.00;;;6.20;99.90;;;;;;5110590;27;20041;-85
2023/04/15 06:27:30;;;;;;;23.80;15.00;;;6.20;99.90;;;;;;5101464;27;20099;-85
2023/04/15 06:29:55;;;;;;;25.33;14.98;;;6.30;99.90;;;;;;5107958;27;20087;-86
2023/04/15 06:32:21;;;;;;;23.45;14.30;;;6.60;99.90;;;;;;5101336;27;20074;-86
2023/04/15 06:34:47;;;;;;;24.50;14.82;;;6.40;99.90;;;;;;5107912;27;20080;-86
2023/04/15 06:37:15;;;;;;;27.15;13.57;;;6.60;99.90;;;;;;5105203;27;20494;-87
2023/04/15 06:39:41;;;;;;;21.10;13.63;;;6.90;99.90;;;;;;5096463;27;20027;-85
2023/04/15 06:42:08;;;;;;;25.65;14.73;;;6.60;99.90;;;;;;5106598;27;20398;-86
2023/04/15 06:44:35;;;;;;;26.98;14.30;;;7.10;99.90;;;;;;5117550;27;20039;-86
2023/04/15 06:47:01;;;;;;;21.83;13.73;;;7.00;99.90;;;;;;5118866;27;20083;-86
2023/04/15 06:49:26;;;;;;;24.05;12.93;;;7.10;99.90;;;;;;5109594;27;20489;-87
2023/04/15 06:51:52;;;;;;;22.77;13.18;;;7.20;99.90;;;;;;5107852;27;20043;-85
2023/04/15 06:54:18;;;;;;;18.17;12.82;;;7.60;99.90;;;;;;5133136;27;20443;-85
2023/04/15 06:56:44;;;;;;;19.60;12.80;;;7.40;99.90;;;;;;5114704;27;20077;-85
2023/04/15 06:59:09;;;;;;;17.90;12.15;;;7.40;99.90;;;;;;5109277;27;20438;-88
2023/04/15 07:01:35;;;;;;;20.08;12.70;;;7.70;99.90;;;;;;5095214;27;20083;-86
2023/04/15 07:04:01;;;;;;;18.65;11.93;;;7.50;99.90;;;;;;5113311;27;20065;-85
2023/04/15 07:06:27;;;;;;;23.60;17.08;;;7.60;99.90;;;;;;5129802;27;20402;-85
2023/04/15 07:08:53;;;;;;;17.45;11.27;;;7.70;99.90;;;;;;5121487;27;20493;-85
2023/04/15 07:11:20;;;;;;;20.27;10.90;;;7.80;99.90;;;;;;5119171;27;20175;-82
2023/04/15 07:13:45;;;;;;;21.95;10.65;;;7.90;99.90;;;;;;5100707;27;20061;-84
2023/04/15 07:16:11;;;;;;;20.38;10.55;;;8.00;99.90;;;;;;5132688;27;20434;-85
2023/04/15 07:18:37;;;;;;;19.52;10.43;;;8.10;99.90;;;;;;5129156;27;20154;-85
2023/04/15 07:21:03;;;;;;;16.55;10.43;;;8.10;99.90;;;;;;5111590;27;20042;-86
2023/04/15 07:23:29;;;;;;;12.63;8.63;;;8.20;99.90;;;;;;5119833;27;20375;-85
2023/04/15 07:25:55;;;;;;;18.60;9.15;;;8.20;99.90;;;;;;5118684;27;20123;-87
2023/04/15 07:28:21;;;;;;;13.65;9.18;;;8.70;99.90;;;;;;5130887;27;20052;-85
2023/04/15 07:30:48;;;;;;;14.52;9.30;;;8.40;99.90;;;;;;5122465;28;20058;-86
2023/04/15 07:33:13;;;;;;;15.27;9.02;;;8.40;99.90;;;;;;5110910;27;20053;-86
2023/04/15 07:35:39;;;;;;;12.15;8.40;;;8.40;99.90;;;;;;5103615;27;20589;-85
2023/04/15 07:38:05;;;;;;;16.60;9.02;;;8.50;99.90;;;;;;5107767;28;20063;-84
2023/04/15 07:40:32;;;;;;;13.32;8.00;;;8.50;99.90;;;;;;5104684;27;20046;-85
2023/04/15 07:43:00;;;;;;;12.93;7.93;;;8.50;99.90;;;;;;5126675;27;20038;-85
2023/04/15 07:45:26;;;;;;;14.73;8.40;;;8.60;99.90;;;;;;5139133;27;20039;-85
2023/04/15 07:47:52;;;;;;;14.50;8.23;;;8.60;99.90;;;;;;5101205;27;20035;-85
2023/04/15 07:50:18;;;;;;;14.93;8.30;;;8.50;99.90;;;;;;5105278;27;20041;-85
2023/04/15 07:52:44;;;;;;;13.95;7.68;;;8.50;99.90;;;;;;5101656;28;20067;-85
2023/04/15 07:55:10;;;;;;;17.23;8.00;;;8.40;99.90;;;;;;5113185;27;20070;-86
2023/04/15 07:57:36;;;;;;;13.15;7.68;;;8.40;99.90;;;;;;5114930;27;20117;-86
2023/04/15 08:00:06;;;;;;;14.15;8.48;;;8.30;99.90;;;;;;5111094;27;20117;-85
2023/04/15 08:02:32;;;;;;;14.70;8.35;;;8.30;99.90;;;;;;5129855;27;20037;-86
2023/04/15 08:04:58;;;;;;;21.02;8.55;;;8.30;99.90;;;;;;5111732;27;20448;-85
2023/04/15 08:07:25;;;;;;;14.13;7.93;;;8.30;99.90;;;;;;5108934;27;20031;-85
2023/04/15 08:09:51;;;;;;;15.05;7.68;;;8.30;99.90;;;;;;5115095;27;20046;-86
2023/04/15 08:12:16;;;;;;;15.45;8.18;;;8.30;99.90;;;;;;5113262;27;20052;-86
2023/04/15 08:14:42;;;;;;;12.77;7.38;;;8.30;99.90;;;;;;5131242;27;20030;-86
2023/04/15 08:17:08;;;;;;;13.40;6.63;;;8.30;99.90;;;;;;5132455;27;20063;-85
2023/04/15 08:19:34;;;;;;;13.00;7.25;;;8.30;99.90;;;;;;5112096;27;20523;-85
2023/04/15 08:22:00;;;;;;;15.30;7.05;;;8.40;99.90;;;;;;5111094;27;20050;-86
2023/04/15 08:24:26;;;;;;;11.50;6.50;;;8.40;99.90;;;;;;5113616;27;20064;-87
2023/04/15 08:26:52;;;;;;;12.32;5.78;;;8.40;99.90;;;;;;5110571;27;20039;-86
2023/04/15 08:29:18;;;;;;;10.60;5.82;;;8.40;99.90;;;;;;5115215;27;20141;-86
2023/04/15 08:31:44;;;;;;;11.50;5.40;;;8.40;99.90;;;;;;5096805;27;20063;-87
2023/04/15 08:34:12;;;;;;;9.30;5.00;;;8.40;99.90;;;;;;5115570;27;20594;-86
2023/04/15 08:36:37;;;;;;;10.75;4.28;;;8.40;99.90;;;;;;5112495;27;20070;-86
2023/04/15 08:39:03;;;;;;;9.88;4.55;;;8.40;99.90;;;;;;5117811;27;20066;-87
2023/04/15 08:41:39;;;;;;;12.35;4.35;;;8.40;99.90;;;;;;5128115;27;20087;-86
2023/04/15 08:44:05;;;;;;;12.60;3.83;;;8.40;99.90;;;;;;5123165;27;20124;-87
2023/04/15 08:46:33;;;;;;;12.60;3.75;;;8.40;99.90;;;;;;5105002;27;20058;-87
2023/04/15 08:49:02;;;;;;;10.75;3.65;;;8.40;99.90;;;;;;5096049;27;20125;-87
2023/04/15 08:51:27;;;;;;;7.35;3.10;;;8.30;99.90;;;;;;5094412;27;20107;-85
2023/04/15 08:53:53;;;;;;;6.80;2.80;;;8.30;99.90;;;;;;5110103;27;20038;-87
2023/04/15 08:56:24;;;;;;;7.68;2.90;;;8.30;99.90;;;;;;5112835;27;20122;-86
2023/04/15 08:58:50;;;;;;;6.10;2.97;;;8.30;99.90;;;;;;5112253;27;20043;-86
2023/04/15 09:01:16;;;;;;;5.30;2.40;;;8.40;99.90;;;;;;5116363;27;20035;-86
2023/04/15 09:03:42;;;;;;;8.20;2.50;;;8.40;99.90;;;;;;5101639;27;20466;-86
2023/04/15 09:06:08;;;;;;;7.50;2.83;;;8.50;99.90;;;;;;5116275;27;20130;-86
2023/04/15 09:08:34;;;;;;;6.63;2.17;;;9.00;99.90;;;;;;5114158;27;20053;-87
2023/04/15 09:11:01;;;;;;;6.80;1.95;;;8.60;99.90;;;;;;5116263;27;20038;-87
2023/04/15 09:13:28;;;;;;;9.38;2.50;;;8.60;99.90;;;;;;5100031;27;20047;-87
2023/04/15 09:15:54;;;;;;;6.47;2.25;;;8.60;99.90;;;;;;5104672;27;20466;-85
2023/04/15 09:18:31;;;;;;;7.93;2.05;;;8.70;99.90;;;;;;5113760;27;20130;-87
2023/04/15 09:21:05;;;;;;;8.43;2.17;;;8.80;99.90;;;;;;5095218;27;20153;-86
2023/04/15 09:23:31;;;;;;;4.55;2.00;;;8.90;99.90;;;;;;5095484;27;20098;-87
2023/04/15 09:25:57;;;;;;;2.65;1.65;;;9.00;99.90;;;;;;5096375;27;20047;-87
2023/04/15 09:28:25;;;;;;;6.60;1.85;;;9.10;99.90;;;;;;5088216;27;20096;-88
2023/04/15 09:30:56;;;;;;;2.78;1.42;;;9.20;99.90;;;;;;5083885;28;20438;-88
2023/04/15 09:33:23;;;;;;;3.42;1.58;;;9.20;99.90;;;;;;5080092;27;20039;-87
2023/04/15 09:36:00;;;;;;;3.85;1.70;;;9.30;99.90;;;;;;5094729;27;20051;-86
2023/04/15 09:38:26;;;;;;;4.65;2.38;;;9.30;99.90;;;;;;5075071;28;20047;-86
2023/04/15 09:40:52;;;;;;;4.55;2.20;;;9.40;99.90;;;;;;5093180;27;20495;-86
2023/04/15 09:43:18;;;;;;;4.50;1.77;;;9.50;99.90;;;;;;5111402;27;20130;-86
2023/04/15 09:45:49;;;;;;;5.90;2.05;;;9.70;99.90;;;;;;5098190;28;20047;-86
2023/04/15 09:48:25;;;;;;;5.30;1.95;;;9.60;99.90;;;;;;5103285;28;20077;-87
2023/04/15 09:50:53;;;;;;;6.28;1.80;;;9.70;99.90;;;;;;5087155;27;20057;-87
2023/04/15 09:53:21;;;;;;;4.45;1.83;;;9.70;99.90;;;;;;5085441;28;20047;-86
2023/04/15 09:55:53;;;;;;;3.22;1.40;;;9.70;99.90;;;;;;5093203;27;20050;-86
2023/04/15 09:58:26;;;;;;;5.43;1.92;;;9.80;99.90;;;;;;5095024;27;20050;-87
2023/04/15 10:00:52;;;;;;;5.80;1.73;;;9.80;99.90;;;;;;5089532;28;20173;-86
2023/04/15 10:03:20;;;;;;;3.97;1.45;;;9.90;99.90;;;;;;5086176;27;20047;-87
2023/04/15 10:05:49;;;;;;;4.55;1.30;;;10.10;99.90;;;;;;5076298;28;20054;-86
2023/04/15 10:08:18;;;;;;;5.80;1.50;;;9.90;99.90;;;;;;5104416;27;20442;-86
2023/04/15 10:10:45;;;;;;;5.28;1.30;;;9.90;99.90;;;;;;5104557;28;20058;-86
2023/04/15 10:13:15;;;;;;;6.25;1.83;;;9.90;99.90;;;;;;5088400;27;20035;-85
2023/04/15 10:15:47;;;;;;;7.18;1.60;;;9.80;99.90;;;;;;5090744;28;20123;-86
2023/04/15 10:18:18;;;;;;;4.95;1.42;;;9.80;99.90;;;;;;5080420;27;20048;-87
2023/04/15 10:20:45;;;;;;;4.45;1.60;;;9.90;99.90;;;;;;5085519;28;20047;-86
2023/04/15 10:23:11;;;;;;;4.80;1.77;;;9.80;99.90;;;;;;5087928;27;20050;-86
2023/04/15 10:25:37;;;;;;;5.13;1.90;;;9.70;99.90;;;;;;5090189;28;20040;-87
2023/04/15 10:28:06;;;;;;;13.48;2.50;;;9.60;99.90;;;;;;5089699;27;20111;-86
2023/04/15 10:30:32;;;;;;;7.13;2.10;;;9.60;99.90;;;;;;5083611;28;20567;-87
2023/04/15 10:33:00;;;;;;;7.53;1.88;;;9.60;99.90;;;;;;5088369;27;20040;-86
2023/04/15 10:35:29;;;;;;;5.68;2.00;;;9.50;99.90;;;;;;5093534;27;20058;-85
2023/04/15 10:37:55;;;;;;;6.60;1.90;;;9.40;99.90;;;;;;5093812;27;20038;-87
2023/04/15 10:40:30;;;;;;;5.40;1.80;;;9.40;99.90;;;;;;5082699;28;20051;-87
2023/04/15 10:42:58;;;;;;;10.52;1.98;;;9.40;99.90;;;;;;5092469;27;20583;-87
2023/04/15 10:45:26;;;;;;;7.30;2.22;;;9.30;99.90;;;;;;5093727;27;20051;-87
2023/04/15 10:47:56;;;;;;;6.45;2.30;;;9.30;99.90;;;;;;5097773;27;20065;-87
2023/04/15 10:50:24;;;;;;;11.43;2.15;;;9.40;99.90;;;;;;5108901;27;20148;-87
2023/04/15 10:52:51;;;;;;;10.05;1.95;;;9.50;99.90;;;;;;5094081;27;20035;-87
2023/04/15 10:55:20;;;;;;;18.40;3.47;;;9.50;99.90;;;;;;5098612;27;20040;-87
2023/04/15 10:57:50;;;;;;;7.47;1.83;;;9.40;99.90;;;;;;5104367;28;20081;-87
2023/04/15 11:00:17;;;;;;;10.07;2.50;;;9.30;99.90;;;;;;5086479;28;20043;-86
2023/04/15 11:02:51;;;;;;;8.73;2.95;;;9.20;99.90;;;;;;5082359;28;20043;-87
2023/04/15 11:05:21;;;;;;;9.45;2.90;;;9.20;99.90;;;;;;5080796;28;20035;-86
2023/04/15 11:07:53;;;;;;;5.75;2.13;;;9.20;99.90;;;;;;5113674;28;20517;-88
2023/04/15 11:10:19;;;;;;;12.07;2.38;;;9.20;99.90;;;;;;5108551;28;20400;-88
2023/04/15 11:12:47;;;;;;;8.75;2.22;;;9.20;99.90;;;;;;5087670;28;20054;-87
2023/04/15 11:15:44;;;;;;;12.23;2.75;;;9.20;99.90;;;;;;5082372;28;20043;-87
2023/04/15 11:18:13;;;;;;;13.68;2.38;;;9.30;99.90;;;;;;5084123;28;20104;-87
2023/04/15 11:20:40;;;;;;;9.27;2.45;;;9.30;99.90;;;;;;5077505;28;20075;-87
2023/04/15 11:23:08;;;;;;;10.93;2.30;;;9.50;99.90;;;;;;5094836;28;20082;-89
2023/04/15 11:25:36;;;;;;;6.78;1.63;;;9.80;99.90;;;;;;5111942;28;20100;-85
2023/04/15 11:28:03;;;;;;;10.93;2.17;;;9.70;99.90;;;;;;5097775;28;20055;-87
2023/04/15 11:30:31;;;;;;;9.55;1.98;;;9.80;99.90;;;;;;5078251;28;20055;-85
2023/04/15 11:32:59;;;;;;;9.93;1.90;;;9.90;99.90;;;;;;5127127;27;20036;-87
2023/04/15 11:35:24;;;;;;;14.95;2.30;;;9.90;99.90;;;;;;5130825;27;20155;-86
2023/04/15 11:37:50;;;;;;;12.15;2.13;;;9.90;99.90;;;;;;5112456;27;20441;-86
2023/04/15 11:40:21;;;;;;;15.02;2.55;;;9.80;99.90;;;;;;5090295;27;20089;-86
2023/04/15 11:43:04;;;;;;;18.05;2.63;;;9.80;99.90;;;;;;5131095;27;20050;-86
2023/04/15 11:45:30;;;;;;;11.77;2.22;;;9.80;99.90;;;;;;5131393;27;20082;-86
2023/04/15 11:48:06;;;;;;;11.55;2.38;;;9.80;99.90;;;;;;5114890;27;20188;-86
2023/04/15 11:50:33;;;;;;;15.57;2.75;;;9.80;99.90;;;;;;5116406;27;20069;-85
2023/04/15 11:53:02;;;;;;;15.65;2.47;;;9.70;99.90;;;;;;5099423;27;20518;-87
2023/04/15 11:55:28;;;;;;;13.48;2.63;;;9.70;99.90;;;;;;5100564;28;20054;-86
2023/04/15 11:58:20;;;;;;;11.60;2.38;;;9.70;99.90;;;;;;5095687;28;20378;-86
2023/04/15 12:00:51;;;;;;;15.20;3.38;;;9.70;99.90;;;;;;5093753;27;20043;-86
2023/04/15 12:03:18;;;;;;;13.88;2.35;;;9.60;99.90;;;;;;5096325;27;20043;-85
2023/04/15 12:06:05;;;;;;;11.75;2.25;;;9.60;99.90;;;;;;5110857;27;20043;-86
2023/04/15 12:08:54;;;;;;;17.85;2.22;;;9.70;99.90;;;;;;5100670;27;20060;-86
2023/04/15 12:11:28;;;;;;;13.27;2.08;;;9.80;99.90;;;;;;5112503;27;20047;-86
2023/04/15 12:13:58;;;;;;;10.85;1.88;;;9.80;99.90;;;;;;5131154;27;20100;-85
2023/04/15 12:16:24;;;;;;;9.60;2.58;;;9.70;99.90;;;;;;5112505;27;20054;-86
2023/04/15 12:18:51;;;;;;;13.60;2.67;;;9.70;99.90;;;;;;5132927;27;20043;-86
2023/04/15 12:21:19;;;;;;;10.75;2.47;;;9.60;99.90;;;;;;5113286;27;20055;-87
2023/04/15 12:23:51;;;;;;;15.20;2.05;;;9.60;99.90;;;;;;5125607;27;20035;-87
2023/04/15 12:26:24;;;;;;;16.30;3.57;;;9.60;99.90;;;;;;5114526;27;20402;-86
2023/04/15 12:28:55;;;;;;;12.07;2.30;;;9.60;99.90;;;;;;5130581;27;20289;-87
2023/04/15 12:31:21;;;;;;;11.35;1.83;;;9.50;99.90;;;;;;5124092;27;20142;-87
2023/04/15 12:33:48;;;;;;;7.80;1.80;;;9.50;99.90;;;;;;5127140;27;20081;-86
2023/04/15 12:36:14;;;;;;;15.35;2.17;;;9.40;99.90;;;;;;5130776;27;20127;-85
2023/04/15 12:38:40;;;;;;;13.68;2.85;;;9.40;99.90;;;;;;5095587;27;20130;-86
2023/04/15 12:41:05;;;;;;;13.25;2.28;;;9.40;99.90;;;;;;5115662;27;20073;-86
2023/04/15 12:43:31;;;;;;;11.40;1.95;;;9.60;99.90;;;;;;5102404;27;20065;-86